Tiempo atmosférico en la estación meteorológica de Girona Aeropuerto, Girona (143 m.)



Fecha
DESCASC
Temp. máxima en grados centígrados (hora)
DESCASC
Temp. mínima en grados centígrados (hora)
DESCASC
Temp. media en grados centígrados
DESCASC
Racha de viento máxima en m/sg (hora)
DESCASC
Velocidad máxima media en intervalos de 10 minutos(hora)
DESCASC
Precipitaciones diarias en mm
DESCASC
Precipitaciones de 00:00 a 06:00 en mm
DESCASC
Precipitaciones de 06:00 a 12:00 en mm
DESCASC
Precipitaciones de 12:00 a 18:00 en mm
DESCASC
Precipitaciones de 18:00 a 24:00 en mm
DESCASC
07-08-2019 -- (--) -- (--) -- -- (--) -- (--) -- -- -- -- 0.6
10-08-2019 35.3 (14:10) 23.5 (00:00) 29.4 9.72 (16:00) 6.67 (15:40) 0 0 0 0 0
24-08-2019 32.7 (13:40) 16.3 (00:00) 24.5 11.39 (15:00) 8.33 (15:50) 0 0 0 0 0
23-08-2019 33.1 (14:10) 15.9 (00:00) 24.5 11.39 (15:40) 7.22 (17:50) 0 0 0 0 0
22-08-2019 33.5 (15:30) 17.8 (00:00) 25.6 10.28 (16:40) 7.5 (16:40) 0 0 0 0 0
21-08-2019 31 (13:20) 12.9 (00:00) 21.9 9.72 (15:40) 6.67 (16:00) 0 0 0 0 0
20-08-2019 28.6 (13:10) 17.5 (00:00) 23.1 13.33 (12:50) 9.17 (12:50) 0 0 0 0 0
19-08-2019 32.4 (14:50) 21.7 (00:00) 27.1 9.17 (15:20) 5.83 (15:20) 0 0 0 0 0
18-08-2019 33.5 (12:20) 19 (00:00) 26.3 16.11 (14:40) 12.5 (15:30) 0 0 0 0 0
17-08-2019 34.4 (14:30) 18.1 (00:00) 26.3 14.44 (17:50) 10.56 (17:20) 0 0 0 0 0
16-08-2019 31.2 (15:30) 18.6 (00:00) 24.9 14.44 (15:30) 10.83 (15:30) 0 0 0 0 0
14-08-2019 29.8 (14:10) 16.2 (00:00) 23 9.72 (15:20) 6.94 (16:10) 0 0 0 0 0
13-08-2019 29.3 (15:10) 14.5 (00:00) 21.9 11.39 (16:00) 7.78 (17:00) 0 0 0 0 0
11-08-2019 33.3 (17:20) 19.4 (00:00) 26.3 10.28 (14:20) 7.22 (17:50) 0 0 0 0 0
26-07-2019 34.8 (13:30) 19.4 (00:00) 27.1 12.5 (15:10) 8.06 (15:40) 0 0 0 0 0
09-08-2019 35.4 (14:20) 21.4 (00:00) 28.4 16.11 (16:10) 12.5 (16:10) 0 0 0 0 0
08-08-2019 33.8 (13:20) 20.6 (00:00) 27.2 12.5 (16:00) 8.89 (16:40) 0 0 0 0 0
06-08-2019 34.4 (15:00) 17.4 (00:00) 25.9 8.89 (15:50) 6.67 (16:40) 0 0 0 0 0
05-08-2019 35.5 (13:50) 18.8 (00:00) 27.1 13.33 (17:30) 10.28 (18:10) 0 0 0 0 0
04-08-2019 34.6 (13:40) 18.6 (00:00) 26.6 12.5 (17:50) 9.72 (18:00) 0 0 0 0 0
03-08-2019 33.7 (13:50) 17.3 (00:00) 25.5 12.5 (16:20) 8.89 (16:00) 0 0 0 0 0
02-08-2019 34.1 (14:50) 17.1 (00:00) 25.6 11.39 (16:20) 8.33 (16:00) 0 0 0 0 0
31-07-2019 30.1 (14:30) 16.8 (00:00) 23.4 11.39 (14:40) 7.22 (14:50) 0 0 0 0 0
30-07-2019 30.6 (12:20) 19.7 (00:00) 25.2 11.67 (15:50) 8.33 (16:00) 0 0 0 0 0
29-07-2019 30.3 (16:30) 15.1 (00:00) 22.7 10.28 (18:00) 7.5 (17:20) 0 0 0 0 0
28-07-2019 28.2 (15:20) 14.3 (00:00) 21.3 10.83 (17:20) 8.06 (17:20) 0 0 0 0 0
01-08-2019 32.2 (15:20) 17.7 (00:00) 25 8.89 (16:30) 5 (16:10) 0.1 0.1 0 0 0
12-08-2019 29 (16:00) 17.7 (00:00) 23.4 12.5 (18:00) 8.89 (18:00) 1.9 0.7 1.2 0 0
15-08-2019 30.9 (13:20) 15.6 (00:00) 23.3 10.28 (14:20) 6.94 (14:30) 2.2 0 0 2.2 0
27-07-2019 27.3 (11:50) 16.1 (00:00) 21.7 10.83 (20:00) 6.67 (19:50) 23.8 0 0 5.5 18.3

Gráficas

Temp. máximas Temp. mínimas Temp. medias Precipitaciones Rachas de viento máximas Velocidades máximas media en intervalos de 10 minutos

Datos horarios

Fecha y hora oficial Temperatura (ºC) Velocidad del viento (km/h) Dirección del viento Racha (km/h) Dirección de racha Precipitación (mm) Presión (hPa) Tendencia (hPa) Humedad (%)
2019-08-24 23:00:00 23.7 9 Sudoeste 11 Sudoeste 0 1002.5 0.4 79
2019-08-24 22:00:00 24.6 7 Sudoeste 17 Sur 0 1002.3 0.4 75
2019-08-24 21:00:00 25.2 10 Sur 21 Sur 0 1002.1 0.2 73
2019-08-24 20:00:00 26 17 Sur 26 Sur 0 1002.1 0.1 65
2019-08-24 19:00:00 27.5 22 Sur 32 Sur 0 1001.9 -0.2 57
2019-08-24 18:00:00 29.2 24 Sur 37 Sur 0 1001.9 -0.4 50
2019-08-24 17:00:00 30.7 26 Sur 41 Sur 0 1002 -0.3 48
2019-08-24 16:00:00 31.4 29 Sur 41 Sur 0 1002.1 -0.5 41
2019-08-24 15:00:00 32 29 Sur 41 Sur 0 1002.3 -0.8 37
2019-08-24 14:00:00 32.3 20 Sur 35 Sur 0 1002.3 -1.2 35
2019-08-24 13:00:00 31.9 17 Sur 30 Sur 0 1002.6 -1 34
2019-08-24 12:00:00 30.5 17 Sur 26 Sur 0 1003.1 -0.5 37
2019-08-24 11:00:00 28 10 Sur 17 Sur 0 1003.5 0.2 46
2019-08-24 10:00:00 24.9 3 Sudeste 9 Sur 0 1003.6 0.4 60
2019-08-24 09:00:00 21.9 3 Sur 8 Sur 0 1003.6 0.3 70
2019-08-24 08:00:00 17.6 2 Noroeste 8 Norte 0 1003.3 0.2 84
2019-08-24 07:00:00 16.5 5 Nordeste 8 Este 0 1003.2 -0.1 87
2019-08-24 06:00:00 17.2 0 Calma -- -- 0 1003.3 0 84
2019-08-24 05:00:00 17.5 0 Calma 8 Norte 0 1003.1 -0.3 83
2019-08-24 04:00:00 17.9 5 Nordeste 11 Oeste 0 1003.3 0 80
2019-08-24 03:00:00 18.6 0 Calma 5 Nordeste 0 1003.3 0.1 80
2019-08-24 02:00:00 19 2 Nordeste -- -- 0 1003.4 0.3 78
2019-08-24 01:00:00 19.7 4 Sudoeste 8 Sudoeste 0 1003.3 0.1 74
2019-08-24 00:00:00 20.5 4 Este 8 Oeste 0 1003.2 0.3 71
2019-08-23 23:00:00 21.5 0 Calma -- -- 0 1003.1 0.3 67
2019-08-23 22:00:00 22.8 6 Oeste 13 Sur 0 1003.2 0.4 61
2019-08-23 21:00:00 24.4 9 Sur 18 Sudoeste 0 1002.9 0.2 54
2019-08-23 20:00:00 26.5 14 Sur 24 Sudoeste 0 1002.8 0.2 49
2019-08-23 19:00:00 28.1 20 Sur 32 Sur 0 1002.8 -0.1 43
2019-08-23 18:00:00 30.1 25 Sur 33 Sur 0 1002.7 -0.5 35
2019-08-23 17:00:00 31.8 22 Sur 33 Sur 0 1002.6 -0.7 33
2019-08-23 16:00:00 32.1 21 Sur 41 Sudoeste 0 1002.9 -0.8 33
2019-08-23 15:00:00 32.5 19 Sur 33 Sur 0 1003.2 -1 32
2019-08-23 14:00:00 32.9 8 Sur 22 Sur 0 1003.3 -1.3 29
2019-08-23 13:00:00 31.8 8 Este 21 Sudeste 0 1003.7 -1.1 31
2019-08-23 12:00:00 29.9 5 Este 13 Este 0 1004.2 -0.7 35
2019-08-23 11:00:00 28.3 5 Este 13 Este 0 1004.6 0.1 38
2019-08-23 10:00:00 25.8 5 Este 9 Nordeste 0 1004.8 0.5 45
2019-08-23 09:00:00 21.3 4 Sur 9 Noroeste 0 1004.9 0.6 59
2019-08-23 08:00:00 18.4 0 Calma 17 Oeste 0 1004.5 0.3 65
2019-08-23 07:00:00 16.3 4 Nordeste 8 Este 0 1004.3 -0.3 75
2019-08-23 06:00:00 16.2 4 Sudoeste 8 Oeste 0 1004.3 -0.2 77
2019-08-23 05:00:00 16.7 5 Nordeste 8 Nordeste 0 1004.2 -0.6 75
2019-08-23 04:00:00 16.6 8 Nordeste 9 Nordeste 0 1004.6 -0.2 77
2019-08-23 03:00:00 16.4 5 Nordeste 9 Nordeste 0 1004.5 0 78
2019-08-23 02:00:00 17.2 3 Sudoeste 8 Oeste 0 1004.8 0.3 78
2019-08-23 01:00:00 18.3 0 Calma 11 Noroeste 0 1004.8 0.3 74
2019-08-23 00:00:00 20.4 8 Norte 9 Norte 0 1004.5 0.4 66
2019-08-22 23:00:00 20.5 8 Nordeste 11 Nordeste 0 1004.5 0.9 68
2019-08-22 22:00:00 22.3 3 Oeste 13 Sudoeste 0 1004.5 1.2 62
2019-08-22 21:00:00 24.3 8 Sudoeste 17 Sur 0 1004.1 0.7 54
2019-08-22 20:00:00 27 13 Sur 24 Sudoeste 0 1003.6 0.3 42
2019-08-22 19:00:00 28.7 19 Sur 28 Sur 0 1003.3 0.1 38
2019-08-22 18:00:00 29.7 21 Sur 32 Sudoeste 0 1003.4 0.1 37
2019-08-22 17:00:00 31 25 Sur 37 Sur 0 1003.3 -0.3 34
2019-08-22 16:00:00 31.9 18 Sur 35 Sur 0 1003.2 -0.8 32
2019-08-22 15:00:00 33.1 7 Este 28 Nordeste 0 1003.3 -0.9 14
2019-08-22 14:00:00 31.9 13 Nordeste 22 Nordeste 0 1003.6 -0.7 16
2019-08-22 13:00:00 31.2 12 Nordeste 28 Nordeste 0 1004 -0.3 17
2019-08-22 12:00:00 30.1 8 Nordeste 15 Sudeste 0 1004.2 0.2 22
2019-08-22 11:00:00 27.3 10 Nordeste 17 Este 0 1004.3 0.6 30
2019-08-22 10:00:00 23.8 5 Este 13 Este 0 1004.3 1 50
2019-08-22 09:00:00 21 5 Norte 13 Noroeste 0 1004 0.9 57
2019-08-22 08:00:00 17.9 4 Oeste 9 Norte 0 1003.7 0.5 75
2019-08-22 07:00:00 18.5 6 Oeste 11 Norte 0 1003.3 0.1 71
2019-08-22 06:00:00 18.9 6 Sur 11 Norte 0 1003.1 -0.2 69
2019-08-22 05:00:00 20 8 Noroeste 11 Noroeste 0 1003.2 -0.5 59
2019-08-22 04:00:00 19.4 3 Norte 9 Norte 0 1003.2 -0.5 72
2019-08-22 03:00:00 19.5 0 Calma 8 Sudeste 0 1003.3 -0.7 73
2019-08-22 02:00:00 19.9 0 Calma 9 Norte 0 1003.7 -0.1 71
2019-08-22 01:00:00 20 10 Norte 11 Noroeste 0 1003.7 0.1 70
2019-08-22 00:00:00 20 0 Calma 9 Sudoeste 0 1004 0.6 72
2019-08-21 23:00:00 21.3 2 Este 8 Norte 0 1003.8 1 68
2019-08-21 22:00:00 22.1 6 Oeste 11 Sudoeste 0 1003.6 0.9 65
2019-08-21 21:00:00 23.3 6 Sudoeste 15 Sudoeste 0 1003.4 0.7 57
2019-08-21 20:00:00 24.6 9 Sudoeste 22 Sur 0 1002.8 0.1 52
2019-08-21 19:00:00 26 16 Sur 28 Sur 0 1002.7 0.2 45
2019-08-21 18:00:00 28.2 17 Sur 32 Sur 0 1002.7 0.1 38
2019-08-21 17:00:00 28.9 17 Sur 35 Sur 0 1002.7 -0.2 36
2019-08-21 16:00:00 29.8 24 Sur 35 Sur 0 1002.5 -1 38
2019-08-21 15:00:00 30.8 17 Sur 32 Sur 0 1002.6 -1.3 33
2019-08-21 14:00:00 30.5 20 Sur 33 Sur 0 1002.9 -1.5 33
2019-08-21 13:00:00 29.9 5 Norte 17 Este 0 1003.5 -1 26
2019-08-21 12:00:00 28 7 Sur 15 Sur 0 1003.9 -0.8 40
2019-08-21 11:00:00 25.7 6 Sur 13 Sur 0 1004.4 -0.3 50
2019-08-21 10:00:00 22.8 5 Sur 11 Sur 0 1004.5 -0.2 56
2019-08-21 09:00:00 19.2 2 Este 11 Este 0 1004.7 0.2 63
2019-08-21 08:00:00 14.9 0 Calma 8 Este 0 1004.7 -0.1 80
2019-08-21 07:00:00 13.3 0 Calma 8 Sur 0 1004.7 -0.4 82
2019-08-21 06:00:00 13.4 3 Sudoeste 9 Oeste 0 1004.5 -0.9 83
2019-08-21 05:00:00 14.7 0 Calma 11 Noroeste 0 1004.8 -0.7 75
2019-08-21 04:00:00 16.9 10 Norte 13 Norte 0 1005.1 -0.5 67
2019-08-21 03:00:00 15.3 8 Norte 13 Norte 0 1005.4 -0.4 73
2019-08-21 02:00:00 16.6 0 Calma 18 Norte 0 1005.5 -0.3 64
2019-08-21 01:00:00 18.5 9 Norte 13 Norte 0 1005.6 0.2 56
2019-08-21 00:00:00 18.9 9 Norte 15 Norte 0 1005.8 1.1 54
2019-08-20 23:00:00 20 7 Norte 21 Nordeste 0 1005.8 1.6 48
2019-08-20 22:00:00 21.7 15 Nordeste 28 Nordeste 0 1005.4 1.8 43
2019-08-20 21:00:00 23.5 21 Nordeste 37 Nordeste 0 1004.7 1.1 44
2019-08-20 20:00:00 24.9 25 Nordeste 39 Nordeste 0 1004.2 1 43
2019-08-20 19:00:00 25.8 23 Nordeste 37 Nordeste 0 1003.6 0 43
2019-08-20 18:00:00 24.8 29 Nordeste 45 Nordeste 0 1003.6 -0.4 46
2019-08-20 17:00:00 26.9 24 Nordeste 35 Nordeste 0 1003.2 -0.5 42
2019-08-20 16:00:00 27.8 9 Norte 30 Nordeste 0 1003.6 0.1 42
2019-08-20 15:00:00 27.1 21 Nordeste 37 Nordeste 0 1004 1 36
2019-08-20 14:00:00 28 28 Nordeste 46 Norte 0 1003.7 0.9 34
2019-08-20 13:00:00 28.2 28 Nordeste 48 Nordeste 0 1003.5 0.9 34
2019-08-20 12:00:00 27.7 27 Nordeste 41 Nordeste 0 1003 0.3 35
2019-08-20 11:00:00 26.8 12 Nordeste 24 Nordeste 0 1002.8 0 45
2019-08-20 10:00:00 24.9 11 Nordeste 18 Nordeste 0 1002.6 0.5 52
2019-08-20 09:00:00 21.8 13 Norte 22 Nordeste 0 1002.7 1.5 60
2019-08-20 08:00:00 18.9 0 Calma 8 Este 0 1002.8 1.3 75
2019-08-20 07:00:00 18.3 7 Norte 11 Norte 0 1002.1 0.3 76
2019-08-20 06:00:00 19.2 7 Norte 9 Norte 0 1001.2 -0.7 69
2019-08-20 05:00:00 19.7 7 Norte 9 Norte 0 1001.5 -0.6 67
2019-08-20 04:00:00 20.7 6 Norte 11 Norte 0 1001.8 -0.5 65
2019-08-20 03:00:00 20.7 8 Nordeste 11 Norte 0 1001.9 -0.4 66
2019-08-20 02:00:00 21.7 8 Norte 15 Norte 0 1002.1 -0.4 61
2019-08-20 01:00:00 22.4 10 Norte 18 Nordeste 0 1002.3 -0.2 57
2019-08-20 00:00:00 22.8 14 Nordeste 22 Nordeste 0 1002.3 0.7 55
2019-08-19 23:00:00 23 7 Nordeste 11 Nordeste 0 1002.5 1.1 64
2019-08-19 22:00:00 23.2 8 Nordeste 15 Este 0 1002.5 1.5 62
2019-08-19 21:00:00 23.9 10 Este 21 Este 0 1001.6 0.6 59
2019-08-19 20:00:00 25.4 13 Este 24 Este 0 1001.4 0.5 55
2019-08-19 19:00:00 26.6 16 Este 28 Nordeste 0 1001 0.5 50
2019-08-19 18:00:00 28.5 18 Este 30 Este 0 1001 0.5 44
2019-08-19 17:00:00 28.4 19 Este 30 Este 0 1000.9 0.7 44
2019-08-19 16:00:00 30.5 19 Este 33 Sudeste 0 1000.5 -0.1 41
2019-08-19 15:00:00 32.2 17 Sudeste 32 Sur 0 1000.5 -0.2 38
2019-08-19 14:00:00 32 18 Sur 32 Sudeste 0 1000.2 -0.2 40
2019-08-19 13:00:00 31.1 9 Sudeste 26 Este 0 1000.6 0.1 44
2019-08-19 12:00:00 28.1 4 Noroeste 13 Sudoeste 0 1000.7 0.5 56
2019-08-19 11:00:00 28.2 6 Sur 18 Sur 0 1000.4 0.5 59
2019-08-19 10:00:00 25 9 Norte 15 Norte 0 1000.5 1.1 65
2019-08-19 09:00:00 23 7 Nordeste 18 Nordeste 0 1000.2 1.2 73
2019-08-19 08:00:00 22.1 10 Norte 17 Norte 0 999.9 0.9 82
2019-08-19 07:00:00 21.9 13 Norte 21 Nordeste 0 999.4 0 90
2019-08-19 06:00:00 22.3 8 Norte 13 Norte 0 999 -0.2 96
2019-08-19 05:00:00 22.8 8 Norte 13 Norte 0 999 -0.4 94
2019-08-19 04:00:00 23.1 8 Norte 15 Norte 0 999.4 -0.3 92
2019-08-19 03:00:00 23.5 10 Norte 17 Norte 0 999.2 0.2 91
2019-08-19 02:00:00 23.7 9 Norte 15 Nordeste 0 999.4 1.2 93
2019-08-19 01:00:00 23.8 8 Nordeste 17 Norte 0 999.7 2.2 92
2019-08-19 00:00:00 23.8 11 Norte 17 Nordeste 0 999 2.1 90
2019-08-18 23:00:00 24.2 3 Norte 11 Sur 0 998.2 2.3 86
2019-08-18 22:00:00 25.1 8 Sur 13 Sur 0 997.5 1.8 83
2019-08-18 21:00:00 26 6 Sudoeste 21 Sur 0 996.9 2 76
2019-08-18 20:00:00 27.6 13 Sur 30 Sur 0 995.9 1.4 67
2019-08-18 19:00:00 29.3 15 Sudeste 37 Sur 0 995.7 1.2 63
2019-08-18 18:00:00 30.3 25 Sur 46 Sur 0 994.9 0.2 61
2019-08-18 17:00:00 31.8 36 Sur 55 Sur 0 994.5 -0.6 54
2019-08-18 16:00:00 32.5 39 Sur 58 Sur 0 994.5 -1.2 51
2019-08-18 15:00:00 32.7 42 Sur 58 Sur 0 994.7 -1.4 49
2019-08-18 14:00:00 33.4 37 Sur 48 Sur 0 995.1 -1.3 47
2019-08-18 13:00:00 33.1 33 Sur 46 Sur 0 995.7 -0.9 45
2019-08-18 12:00:00 33.1 35 Sur 48 Sur 0 996.1 -0.8 32
2019-08-18 11:00:00 30.6 23 Sur 33 Sur 0 996.4 -0.5 48
2019-08-18 10:00:00 27.8 16 Sur 22 Sur 0 996.6 -0.3 60
2019-08-18 09:00:00 23.9 10 Sudoeste 18 Sur 0 996.9 -0.1 71
2019-08-18 08:00:00 20.9 9 Sudoeste 15 Sudoeste 0 996.9 -0.4 80
2019-08-18 07:00:00 19.7 9 Sudoeste 15 Sur 0 996.9 -0.8 81
2019-08-18 06:00:00 19.6 11 Sudoeste 17 Sur 0 997 -1 85
2019-08-18 05:00:00 19.7 9 Oeste 15 Sudoeste 0 997.3 -1 92
2019-08-18 04:00:00 20.7 7 Sudoeste 11 Sudoeste 0 997.7 -0.8 92
2019-08-18 03:00:00 21.7 2 Sudoeste 11 Sur 0 998 -0.4 93
2019-08-18 02:00:00 22.1 10 Sur 17 Sur 0 998.3 -0.1 92
2019-08-18 01:00:00 23.2 14 Sur 21 Sur 0 998.5 0.3 88
2019-08-18 00:00:00 23.6 12 Sur 21 Sur 0 998.4 0.9 85
2019-08-17 23:00:00 24.2 13 Sur 26 Sur 0 998.4 1.2 83
2019-08-17 22:00:00 24.9 16 Sur 30 Sur 0 998.2 1 77
2019-08-17 21:00:00 25.9 22 Sur 39 Sur 0 997.5 0.2 70
2019-08-17 20:00:00 28.1 22 Sur 46 Sur 0 997.2 -0.2 58
2019-08-17 19:00:00 29.7 33 Sur 50 Sur 0 997.2 -0.6 52
2019-08-17 18:00:00 30.7 34 Sur 52 Sur 0 997.3 -1 55
2019-08-17 17:00:00 32 36 Sur 50 Sur 0 997.4 -1.5 50
2019-08-17 16:00:00 33.1 31 Sur 45 Sur 0 997.8 -1.7 47
2019-08-17 15:00:00 34 33 Sur 45 Sur 0 998.3 -1.7 39
2019-08-17 14:00:00 34 20 Sur 30 Sur 0 998.9 -1.5 41
2019-08-17 13:00:00 33.1 19 Sur 28 Sur 0 999.5 -1.1 41
2019-08-17 12:00:00 31.4 10 Sur 22 Sudoeste 0 1000 -0.5 42
2019-08-17 11:00:00 28.9 8 Sur 15 Sudoeste 0 1000.4 0.3 54
2019-08-17 10:00:00 26.1 7 Sudeste 17 Este 0 1000.6 0.7 66
2019-08-17 09:00:00 23.6 0 Calma 4 Sur 0 1000.5 0.6 81
2019-08-17 08:00:00 20.1 0 Calma 5 Sudoeste 0 1000.1 0.2 97
2019-08-17 07:00:00 18.2 0 Calma 5 Sudoeste 0 999.9 -0.3 96
2019-08-17 06:00:00 19 0 Calma 4 Sudoeste 0 999.9 -0.5 97
2019-08-17 05:00:00 19.1 0 Calma -- -- 0 999.9 -0.7 96
2019-08-17 04:00:00 19.5 0 Calma 5 Nordeste 0 1000.2 -0.7 94
2019-08-17 03:00:00 20.3 0 Calma 9 Oeste 0 1000.4 -0.6 96
2019-08-17 02:00:00 20.8 0 Calma -- -- 0 1000.6 -0.3 93
2019-08-17 01:00:00 21.6 3 Oeste 9 Oeste 0 1000.9 0.2 91
2019-08-17 00:00:00 22.7 0 Calma 5 Oeste 0 1001 1.1 87
2019-08-16 23:00:00 23.7 3 Norte 11 Sudeste 0 1000.9 1.7 83
2019-08-16 22:00:00 24.6 4 Sudeste 9 Sur 0 1000.7 2 79
2019-08-16 21:00:00 26.1 7 Sudeste 21 Sudeste 0 999.9 1.3 72
2019-08-16 20:00:00 27.6 15 Sudeste 26 Este 0 999.2 0.2 69
2019-08-16 19:00:00 28.6 18 Sudeste 37 Sur 0 998.7 -0.8 64
2019-08-16 18:00:00 29.4 28 Sur 42 Sur 0 998.6 -1.6 58
2019-08-16 17:00:00 30.5 31 Sur 46 Sur 0 999 -2 53
2019-08-16 16:00:00 30.9 37 Sur 52 Sur 0 999.5 -2.3 48
2019-08-16 15:00:00 30.5 34 Sur 48 Sur 0 1000.2 -2.4 50
2019-08-16 14:00:00 29.5 33 Sudoeste 46 Sur 0 1001 -2.2 54
2019-08-16 13:00:00 28.9 29 Sur 41 Sudoeste 0 1001.8 -1.8 56
2019-08-16 12:00:00 27.2 23 Sur 33 Sur 0 1002.6 -1.1 60
2019-08-16 11:00:00 25.6 12 Sur 21 Sur 0 1003.2 -0.1 61
2019-08-16 10:00:00 23.5 4 Oeste 11 Nordeste 0 1003.6 0.6 61
2019-08-16 09:00:00 21 6 Nordeste 9 Nordeste 0 1003.7 0.8 74
2019-08-16 08:00:00 19.7 5 Norte 9 Norte 0 1003.3 0.5 79
2019-08-16 07:00:00 19.3 5 Norte 13 Norte 0 1003 -0.1 82
2019-08-16 06:00:00 18.6 5 Noroeste 9 Norte 0 1002.9 -0.9 96
2019-08-16 05:00:00 19.1 0 Calma 4 Norte 0 1002.8 -1.2 94
2019-08-16 04:00:00 20.2 0 Calma 5 Oeste 0 1003.1 -1.4 94
2019-08-16 03:00:00 20.9 0 Calma 5 Noroeste 0 1003.8 -0.8 94
2019-08-16 02:00:00 21 0 Calma 8 Este 0 1004 -0.6 94
2019-08-16 01:00:00 21.1 6 Nordeste 8 Este 0 1004.5 0.1 94
2019-08-16 00:00:00 21.1 0 Calma 9 Noroeste 0 1004.6 0.9 91
2019-08-15 23:00:00 21.1 7 Noroeste 13 Noroeste 0 1004.6 1.2 90
2019-08-15 22:00:00 21.4 2 Noroeste 13 Nordeste 0 1004.4 1.6 91
2019-08-15 21:00:00 21.9 0 Calma 9 Norte 0 1003.7 1.2 88
2019-08-15 20:00:00 22.5 5 Norte 9 Norte 0 1003.4 0.9 84
2019-08-15 19:00:00 22.6 5 Norte 13 Este 0 1002.8 0.4 85
2019-08-15 18:00:00 22.8 6 Este 17 Este 1 1002.5 0.3 80
2019-08-15 17:00:00 23.9 12 Sudeste 32 Sudeste 0 1002.5 0.5 70
2019-08-15 16:00:00 25.1 20 Sudeste 32 Este 0 1002.4 0.2 71
2019-08-15 15:00:00 24.6 17 Sudeste 37 Sur 1.2 1002.2 -0.5 81
2019-08-15 14:00:00 28 23 Sur 35 Sur 0 1002 -1.2 62
2019-08-15 13:00:00 30.1 16 Sur 30 Sur 0 1002.2 -1.2 52
2019-08-15 12:00:00 28.6 10 Sudoeste 22 Sur 0 1002.7 -0.8 51
2019-08-15 11:00:00 26.9 13 Sur 22 Sur 0 1003.2 0.2 57
2019-08-15 10:00:00 24.8 3 Sudeste 9 Sudeste 0 1003.4 0.7 57
2019-08-15 09:00:00 21.1 5 Sudoeste 11 Sur 0 1003.5 1.3 70
2019-08-15 08:00:00 17.8 0 Calma -- -- 0 1003 0.9 89
2019-08-15 07:00:00 15.7 0 Calma 5 Nordeste 0 1002.7 0.3 93
2019-08-15 06:00:00 16.3 7 Norte 11 Norte 0 1002.2 -0.4 96
2019-08-15 05:00:00 16.3 0 Calma 5 Nordeste 0 1002.1 -0.6 93
2019-08-15 04:00:00 16.8 0 Calma -- -- 0 1002.4 -0.4 91
2019-08-15 03:00:00 17.3 0 Calma -- -- 0 1002.6 -0.3 90
2019-08-15 02:00:00 18.1 4 Oeste 8 Oeste 0 1002.7 0 89
2019-08-15 01:00:00 18.4 0 Calma -- -- 0 1002.8 0.5 87
2019-08-15 00:00:00 19.6 0 Calma 8 Sudoeste 0 1002.9 1.3 84
2019-08-14 23:00:00 21.4 6 Sudoeste -- -- 0 1002.7 1 79
2019-08-14 22:00:00 22.1 7 Sudoeste 17 Sudoeste 0 1002.3 1 76
2019-08-14 21:00:00 23.3 13 Sur 26 Sur 0 1001.6 0.4 70
2019-08-14 20:00:00 24.9 16 Sur 28 Sur 0 1001.7 0.4 62
2019-08-14 19:00:00 26.3 19 Sur 32 Sur 0 1001.3 0.1 55
2019-08-14 18:00:00 27.2 20 Sur 32 Sur 0 1001.2 -0.3 50
2019-08-14 17:00:00 27.5 22 Sur 33 Sur 0 1001.3 -0.6 48
2019-08-14 16:00:00 28 22 Sur 35 Sur 0 1001.2 -1.2 45
2019-08-14 15:00:00 28.5 13 Sudoeste 26 Sudoeste 0 1001.5 -1.4 43
2019-08-14 14:00:00 29.4 10 Sur 22 Sur 0 1001.9 -1.2 37
2019-08-14 13:00:00 27.8 7 Sur 17 Sur 0 1002.4 -0.8 40
2019-08-14 12:00:00 26.2 5 Este 17 Sudeste 0 1002.9 -0.3 46
2019-08-14 11:00:00 24.7 6 Nordeste 13 Nordeste 0 1003.1 -0.3 49
2019-08-14 10:00:00 22.6 6 Nordeste 11 Nordeste 0 1003.2 0.4 49
2019-08-14 09:00:00 19.5 5 Nordeste 8 Nordeste 0 1003.2 0.6 57
2019-08-14 08:00:00 17.5 2 Noroeste 9 Norte 0 1003.4 0.5 67
2019-08-14 07:00:00 16.6 8 Nordeste 13 Norte 0 1002.8 -0.4 68
2019-08-14 06:00:00 17.7 5 Noroeste 9 Norte 0 1002.6 -0.8 64
2019-08-14 05:00:00 18.6 5 Norte 8 Norte 0 1002.9 -0.6 59
2019-08-14 04:00:00 18.7 7 Norte 17 Norte 0 1003.2 -0.3 57
2019-08-14 03:00:00 18.9 10 Norte 13 Norte 0 1003.4 0.1 58
2019-08-14 02:00:00 18.9 9 Norte 13 Norte 0 1003.5 0.3 60
2019-08-14 01:00:00 19.5 3 Nordeste 8 Este 0 1003.5 0.7 59
2019-08-14 00:00:00 20.5 5 Este 18 Este 0 1003.3 1.1 54
2019-08-13 23:00:00 21.7 10 Este 15 Este 0 1003.2 1.7 58
2019-08-13 22:00:00 21.6 7 Sudeste 15 Sur 0 1002.8 1.4 70
2019-08-13 21:00:00 22.3 10 Sur 24 Sur 0 1002.2 1 69
2019-08-13 20:00:00 24 17 Sur 24 Sur 0 1001.5 0.2 62
2019-08-13 19:00:00 25.1 17 Sur 30 Sur 0 1001.4 0.3 57
2019-08-13 18:00:00 26.1 22 Sur 39 Sur 0 1001.2 -0.1 53
2019-08-13 17:00:00 27.4 28 Sur 41 Sur 0 1001.3 -0.3 48
2019-08-13 16:00:00 28.2 27 Sur 41 Sur 0 1001.1 -1.3 41
2019-08-13 15:00:00 28.9 17 Sur 30 Sur 0 1001.3 -1.8 34
2019-08-13 14:00:00 27.6 6 Sur 18 Sur 0 1001.6 -1.8 33
2019-08-13 13:00:00 26.4 8 Sur 22 Este 0 1002.4 -1.4 39
2019-08-13 12:00:00 24.8 4 Sur 17 Nordeste 0 1003.1 -0.8 41
2019-08-13 11:00:00 22.6 11 Nordeste 22 Nordeste 0 1003.4 -0.2 51
2019-08-13 10:00:00 20.4 13 Nordeste 18 Nordeste 0 1003.8 0.9 59
2019-08-13 09:00:00 18.1 6 Nordeste 18 Norte 0 1003.9 0.9 67
2019-08-13 08:00:00 17.2 13 Norte 18 Norte 0 1003.6 0.5 70
2019-08-13 07:00:00 15.5 13 Norte 21 Norte 0 1002.9 -0.4 76
2019-08-13 06:00:00 15.6 7 Norte 13 Norte 0 1003 -0.3 74
2019-08-13 05:00:00 15.7 2 Oeste 11 Norte 0 1003.1 -0.4 75
2019-08-13 04:00:00 16 6 Noroeste 11 Norte 0 1003.3 -0.1 72
2019-08-13 03:00:00 17.2 5 Norte 8 Norte 0 1003.3 0.2 67
2019-08-13 02:00:00 17.5 0 Calma 9 Norte 0 1003.5 0.7 66
2019-08-13 01:00:00 18.8 5 Norte 9 Norte 0 1003.4 1.3 59
2019-08-13 00:00:00 19.6 3 Norte 17 Nordeste 0 1003.1 2 58
2019-08-12 23:00:00 20.5 13 Nordeste 17 Nordeste 0 1002.8 2.3 50
2019-08-12 22:00:00 21.6 15 Nordeste 22 Nordeste 0 1002.1 2 43
2019-08-12 21:00:00 22.9 10 Este 22 Este 0 1001.1 1.1 44
2019-08-12 20:00:00 24.9 16 Nordeste 33 Nordeste 0 1000.5 0.7 43
2019-08-12 19:00:00 26.4 23 Nordeste 41 Nordeste 0 1000.1 0.2 41
2019-08-12 18:00:00 27.5 32 Nordeste 45 Nordeste 0 1000 0.1 36
2019-08-12 17:00:00 28.6 20 Nordeste 41 Nordeste 0 999.8 -0.2 34
2019-08-12 16:00:00 28.8 21 Nordeste 30 Nordeste 0 999.9 -0.3 36
2019-08-12 15:00:00 27.4 19 Este 28 Este 0 999.9 -0.4 39
2019-08-12 14:00:00 28 12 Nordeste 18 Nordeste 0 1000 0 43
2019-08-12 13:00:00 25.5 10 Este 18 Nordeste 0 1000.2 0.9 52
2019-08-12 12:00:00 24 13 Nordeste 22 Nordeste 0 1000.3 1.4 62
2019-08-12 11:00:00 21.9 10 Nordeste 18 Norte 0 1000 1.4 76
2019-08-12 10:00:00 20.3 10 Norte 15 Norte 0 999.3 1.1 85
2019-08-12 09:00:00 19.5 8 Nordeste 13 Nordeste 0 998.9 0.2 86
2019-08-12 08:00:00 18.5 10 Nordeste 18 Norte 0 998.6 1.2 90
2019-08-12 07:00:00 17.9 14 Norte 21 Norte 1.2 998.2 -0.4 90
2019-08-12 06:00:00 18.8 11 Norte 30 Noroeste 0.7 998.7 -0.2 85
2019-08-12 05:00:00 21.6 15 Nordeste 22 Nordeste 0 997.4 -1.4 61
2019-08-12 04:00:00 21.6 11 Norte 21 Nordeste 0 998.6 -0.3 61
2019-08-12 03:00:00 21.3 12 Nordeste 18 Nordeste 0 998.9 -0.2 65
2019-08-12 02:00:00 20.7 10 Norte 15 Norte 0 998.8 0 70
2019-08-12 01:00:00 22.1 10 Norte 15 Norte 0 998.9 0.4 67
2019-08-12 00:00:00 22.5 6 Norte 11 Nordeste 0 999.1 1.3 74
2019-08-11 23:00:00 23.5 0 Calma 5 Este 0 998.8 1.2 72
2019-08-11 22:00:00 24.4 4 Este 13 Este 0 998.5 1.5 68
2019-08-11 21:00:00 25.3 12 Este 21 Este 0 997.8 1.5 66
2019-08-11 20:00:00 27.2 14 Este 28 Sudeste 0 997.6 1.5 59
2019-08-11 19:00:00 30.1 17 Este 32 Este 0 997 1.1 47
2019-08-11 18:00:00 31.8 26 Este 37 Este 0 996.3 -0.1 41
2019-08-11 17:00:00 33 12 Sur 28 Sur 0 996.1 -0.6 39
2019-08-11 16:00:00 32.5 16 Sur 37 Sur 0 995.9 -1.3 40
2019-08-11 15:00:00 31.8 22 Sur 37 Sur 0 996.4 -1.6 45
2019-08-11 14:00:00 32.4 21 Sur 35 Sudoeste 0 996.7 -1.3 40
2019-08-11 13:00:00 31.9 19 Sur 32 Sur 0 997.2 -1.1 37
2019-08-11 12:00:00 31.4 16 Sur 24 Sur 0 998 -0.5 39
2019-08-11 11:00:00 30 12 Sudoeste 21 Sur 0 998 -1 41
2019-08-11 10:00:00 28.3 4 Sur 11 Sur 0 998.3 -0.7 49
2019-08-11 09:00:00 25.3 0 Calma 5 Sur 0 998.5 -0.5 64
2019-08-11 08:00:00 21.3 0 Calma 4 Nordeste 0 999 -0.2 78
2019-08-11 07:00:00 19.7 0 Calma -- -- 0 999 -0.7 83
2019-08-11 06:00:00 20.1 0 Calma -- -- 0 999 -1.1 81
2019-08-11 05:00:00 20.4 0 Calma -- -- 0 999.2 -1.4 80
2019-08-11 04:00:00 21.1 0 Calma 9 Norte 0 999.7 -1 76
2019-08-11 03:00:00 21.9 5 Norte 9 Norte 0 1000.1 -1 74
2019-08-11 02:00:00 23 8 Norte 11 Norte 0 1000.6 -0.6 68
2019-08-11 01:00:00 23.6 5 Norte 11 Norte 0 1000.7 -0.4 64
2019-08-11 00:00:00 24.1 3 Norte 5 Norte 0 1001.1 0.5 64
2019-08-10 23:00:00 25.2 4 Nordeste 8 Nordeste 0 1001.2 1.1 59
2019-08-10 22:00:00 26.7 4 Este 18 Este 0 1001.1 1.2 53
2019-08-10 21:00:00 28.2 9 Este 18 Este 0 1000.6 0.8 49
2019-08-10 20:00:00 30.1 12 Este 22 Sur 0 1000.1 0.4 45
2019-08-10 19:00:00 30.9 15 Sudeste 28 Sudeste 0 999.9 0.3 47
2019-08-10 18:00:00 32.5 18 Sudeste 28 Sudeste 0 999.8 -0.1 42
2019-08-10 17:00:00 33.4 18 Sudeste 32 Sudeste 0 999.7 -0.3 38
2019-08-10 16:00:00 34.3 22 Sudeste 35 Sudeste 0 999.6 -0.9 33
2019-08-10 15:00:00 35.3 21 Sur 33 Sur 0 999.9 -1.3 35
2019-08-10 14:00:00 34.9 18 Sur 28 Sur 0 1000 -1.4 37
2019-08-10 13:00:00 33.5 11 Sur 26 Sur 0 1000.5 -0.7 37
2019-08-10 12:00:00 32.3 12 Nordeste 26 Nordeste 0 1001.2 0.3 39
2019-08-10 11:00:00 30.4 13 Nordeste 28 Nordeste 0 1001.4 1 44
2019-08-10 10:00:00 28.5 15 Nordeste 24 Norte 0 1001.2 1.5 57
2019-08-10 09:00:00 26.5 13 Nordeste 28 Norte 0 1000.9 2 63
2019-08-10 08:00:00 24.5 15 Nordeste 22 Nordeste 0 1000.4 1.8 78
2019-08-10 07:00:00 23.5 9 Norte 13 Norte 0 999.7 1.2 87
2019-08-10 06:00:00 24.3 9 Norte 22 Norte 0 998.9 0.3 83
2019-08-10 05:00:00 24.8 10 Nordeste 21 Nordeste 0 998.6 0.8 87
2019-08-10 04:00:00 24.1 7 Norte 13 Norte 0 998.5 1.4 92
2019-08-10 03:00:00 24.4 10 Norte 18 Norte 0 998.6 1.8 91
2019-08-10 02:00:00 24.4 11 Norte 17 Norte 0 997.8 1.4 88
2019-08-10 01:00:00 24.5 9 Norte 21 Norte 0 997.1 1.5 86
2019-08-10 00:00:00 25.5 16 Norte 28 Norte 0 996.8 2.6 85
2019-08-09 23:00:00 26.5 19 Norte 28 Nordeste 0 996.4 2.7 80
2019-08-09 22:00:00 27.3 12 Nordeste 22 Sur 0 995.6 1.9 70
2019-08-09 21:00:00 29 16 Sur 37 Sur 0 994.2 0.4 64
2019-08-09 20:00:00 31.5 26 Sur 35 Sur 0 993.7 -0.3 56
2019-08-09 19:00:00 33.2 26 Sur 45 Sur 0 993.7 -0.4 52
2019-08-09 18:00:00 32.3 28 Sur 42 Sur 0 993.8 -0.6 58
2019-08-09 17:00:00 32.6 34 Sur 58 Sur 0 994 -0.8 57
2019-08-09 16:00:00 33 42 Sur 54 Sur 0 994.1 -1.2 57
2019-08-09 15:00:00 35 31 Sur 45 Sur 0 994.4 -1 48
2019-08-09 14:00:00 34.6 29 Sur 42 Sur 0 994.8 -0.9 49
2019-08-09 13:00:00 34 28 Sur 37 Sur 0 995.3 -0.4 49
2019-08-09 12:00:00 33.2 20 Sur 33 Sur 0 995.4 -0.6 50
2019-08-09 11:00:00 32 18 Sur 30 Sur 0 995.7 -0.2 44
2019-08-09 10:00:00 29.3 16 Sur 22 Sur 0 995.7 -0.2 58
2019-08-09 09:00:00 26.7 13 Sur 22 Sur 0 996 0.2 77
2019-08-09 08:00:00 23.6 9 Sudoeste 15 Sudoeste 0 995.9 -0.1 89
2019-08-09 07:00:00 21.4 11 Sudoeste 15 Sudoeste 0 995.9 -0.3 89
2019-08-09 06:00:00 21.9 2 Sudoeste 11 Sur 0 995.8 -0.3 96
2019-08-09 05:00:00 22.5 6 Sudoeste 15 Sudoeste 0 996 -0.2 97
2019-08-09 04:00:00 22.8 8 Sudoeste 11 Sudoeste 0 996.2 -0.2 95
2019-08-09 03:00:00 22.9 3 Oeste 9 Sudoeste 0 996.1 -0.2 92
2019-08-09 02:00:00 23 9 Sudoeste 11 Oeste 0 996.2 0 93
2019-08-09 01:00:00 24 6 Oeste 8 Oeste 0 996.4 0.6 91
2019-08-09 00:00:00 24.7 6 Sudoeste 15 Sur 0 996.3 1.2 89
2019-08-08 23:00:00 25.4 12 Sur 18 Sur 0 996.2 1.4 84
2019-08-08 22:00:00 26 13 Sur 21 Sur 0 995.8 1.1 80
2019-08-08 21:00:00 27.4 15 Sur 30 Sur 0 995.1 0.2 74
2019-08-08 20:00:00 29.1 21 Sur 41 Sur 0 994.8 -0.3 65
2019-08-08 19:00:00 30.3 27 Sur 41 Sur 0 994.7 -0.6 62
2019-08-08 18:00:00 31.7 32 Sur 45 Sur 0 994.9 -0.8 53
2019-08-08 17:00:00 31.8 28 Sur 45 Sur 0 995.1 -0.9 58
2019-08-08 16:00:00 32.5 31 Sur 45 Sur 0 995.3 -0.7 55
2019-08-08 15:00:00 32.5 26 Sur 41 Sur 0 995.7 -0.8 56
2019-08-08 14:00:00 33 25 Sur 35 Sur 0 996 -0.5 55
2019-08-08 13:00:00 33.5 19 Sur 33 Sudoeste 0 996 -0.7 48
2019-08-08 12:00:00 31.8 10 Sudoeste 15 Sur 0 996.5 -0.2 50
2019-08-08 11:00:00 29.8 7 Sur 13 Sudoeste 0 996.5 -0.1 62
2019-08-08 10:00:00 27.8 2 Norte 9 Este 0 996.7 0.7 69
2019-08-08 09:00:00 25.3 4 Nordeste 8 Nordeste 0 996.7 0.7 77
2019-08-08 08:00:00 22.4 0 Calma 9 Norte 0 996.6 0.6 90
2019-08-08 07:00:00 20.6 0 Calma 5 Nordeste 0 996 -0.1 94
2019-08-08 06:00:00 21.4 0 Calma 8 Sur 0 996 -0.2 92
2019-08-08 05:00:00 22 2 Sur 9 Sudoeste 0 996 -0.5 91
2019-08-08 04:00:00 22.3 6 Oeste 13 Sur 0 996.1 -0.4 89
2019-08-08 03:00:00 22.3 6 Nordeste 9 Nordeste 0 996.2 0 89
2019-08-08 02:00:00 22.6 0 Calma 4 Nordeste 0 996.5 0.2 86
2019-08-08 01:00:00 22.3 7 Norte 13 Norte 0 996.5 0.1 88
2019-08-08 00:00:00 22.9 2 Norte 8 Norte 0 996.2 0.7 83
2019-08-07 23:00:00 23.1 6 Norte 11 Nordeste 0 996.3 0.8 85
2019-08-07 22:00:00 23.8 6 Noroeste 13 Noroeste 0 996.4 0.5 78
2019-08-07 21:00:00 24.1 8 Noroeste 22 Nordeste 0 995.5 0.2 82
2019-08-07 20:00:00 25.4 10 Norte 22 Sur 0.6 995.5 0.7 77
2019-08-07 19:00:00 27.8 7 Sudoeste 22 Sudoeste 0 995.9 0.7 64
2019-08-07 18:00:00 29 13 Sur 32 Sudoeste 0 995.3 -- 60
2019-08-07 17:00:00 30.4 15 Sur 28 Sur 0 994.8 -- 59
2019-08-07 16:00:00 30.2 17 Sur -- -- -- 995.2 -- 62
2019-08-07 15:00:00 -- -- -- -- -- -- -- -- --
2019-08-07 14:00:00 -- -- -- -- -- -- -- -- --
2019-08-07 13:00:00 -- -- -- -- -- -- -- -- --
2019-08-07 12:00:00 -- -- -- -- -- -- -- -- --
2019-08-07 11:00:00 -- -- -- -- -- -- -- -- --
2019-08-07 10:00:00 -- -- -- -- -- -- -- -- --
2019-08-07 09:00:00 -- -- -- -- -- -- -- -- --
2019-08-07 08:00:00 -- -- -- -- -- -- -- -- --
2019-08-07 07:00:00 -- -- -- -- -- -- -- -- --
2019-08-07 06:00:00 -- -- -- -- -- -- -- -- --
2019-08-07 05:00:00 -- -- -- -- -- -- -- -- --
2019-08-07 04:00:00 -- -- -- -- -- -- -- -- --
2019-08-07 03:00:00 -- -- -- -- -- -- -- -- --
2019-08-07 02:00:00 -- -- -- -- -- -- -- -- --
2019-08-07 01:00:00 -- -- -- -- -- -- -- -- --
2019-08-07 00:00:00 24.2 9 Nordeste 13 Norte 0 995.9 1.3 91
2019-08-06 23:00:00 24.7 11 Nordeste 18 Norte 0 995.5 1 89
2019-08-06 22:00:00 25.5 10 Nordeste 18 Norte 0 994.9 0.9 85
2019-08-06 21:00:00 26.5 0 Calma 13 Sur 0 994.6 0.2 74
2019-08-06 20:00:00 27.9 9 Sur 21 Sudoeste 0 994.5 -0.1 70
2019-08-06 19:00:00 29.2 19 Sur 30 Sur 0 994 -0.8 61
2019-08-06 18:00:00 31 20 Sur 30 Sur 0 994.4 -1.4 56
2019-08-06 17:00:00 32.9 22 Sur 32 Sur 0 994.6 -1.9 44
2019-08-06 16:00:00 33.8 21 Sur 32 Sudoeste 0 994.8 -2.2 38
2019-08-06 15:00:00 34.2 17 Sur 28 Sur 0 995.8 -1.5 34
2019-08-06 14:00:00 33.5 14 Sur 30 Sur 0 996.5 -1.1 27
2019-08-06 13:00:00 32.2 9 Sur 28 Sudeste 0 997 -0.5 43
2019-08-06 12:00:00 31.1 9 Sur 22 Sudeste 0 997.3 -0.5 38
2019-08-06 11:00:00 29.2 6 Este 15 Nordeste 0 997.6 -0.2 44
2019-08-06 10:00:00 26.4 12 Norte 21 Norte 0 997.5 -0.6 65
2019-08-06 09:00:00 24.4 10 Nordeste 15 Nordeste 0 997.8 -0.4 64
2019-08-06 08:00:00 20.3 5 Norte 9 Norte 0 997.8 -0.4 76
2019-08-06 07:00:00 17.5 3 Norte 8 Sur 0 998.1 -0.2 82
2019-08-06 06:00:00 18.1 0 Calma 8 Nordeste 0 998.2 -0.3 79
2019-08-06 05:00:00 18.9 0 Calma 8 Norte 0 998.2 -0.5 77
2019-08-06 04:00:00 19.2 2 Sudeste 8 Nordeste 0 998.3 -0.3 80
2019-08-06 03:00:00 20 0 Calma -- -- -- 998.5 0.1 79
2019-08-06 02:00:00 20.6 0 Calma -- -- 0 998.7 0.5 78
2019-08-06 01:00:00 21.6 0 Calma 5 Nordeste 0 998.6 1 74
2019-08-06 00:00:00 22.6 2 Nordeste 8 Norte 0 998.4 1.4 71
2019-08-05 23:00:00 24.4 4 Sudoeste 15 Sur 0 998.2 1.2 64
2019-08-05 22:00:00 26 14 Sur 22 Sur 0 997.6 0.8 51
2019-08-05 21:00:00 27.9 14 Sur 37 Sur 0 997 0 31
2019-08-05 20:00:00 30.2 32 Sur 41 Sur 0 997 -0.1 22
2019-08-05 19:00:00 31.1 26 Sur 46 Sur 0 996.8 -0.7 34
2019-08-05 18:00:00 32 32 Sur 48 Sur 0 997 -0.8 35
2019-08-05 17:00:00 32.6 30 Sur 41 Sur 0 997.1 -1 38
2019-08-05 16:00:00 33.1 31 Sur 45 Sur 0 997.5 -1.1 34
2019-08-05 15:00:00 34.4 27 Sur 41 Sur 0 997.8 -1.4 32
2019-08-05 14:00:00 35.4 25 Sur 35 Sur 0 998.1 -1.4 27
2019-08-05 13:00:00 34.5 19 Sur 32 Sur 0 998.6 -0.8 29
2019-08-05 12:00:00 32.5 11 Sur 21 Sur 0 999.2 -0.3 33
2019-08-05 11:00:00 30.6 7 Sudeste 15 Sudeste 0 999.5 0.2 43
2019-08-05 10:00:00 28 7 Nordeste 11 Nordeste 0 999.4 0.2 52
2019-08-05 09:00:00 24.4 5 Nordeste 8 Nordeste 0 999.5 0.6 70
2019-08-05 08:00:00 21 7 Norte 9 Norte 0 999.3 0.1 80
2019-08-05 07:00:00 18.8 0 Calma 8 Nordeste 0 999.2 -0.1 91
2019-08-05 06:00:00 19.1 7 Nordeste 9 Nordeste 0 998.9 -0.4 90
2019-08-05 05:00:00 20.3 0 Calma 4 Sudoeste 0 999.2 -0.1 86
2019-08-05 04:00:00 20 0 Calma 5 Nordeste 0 999.3 0.2 84
2019-08-05 03:00:00 20.6 3 Nordeste -- -- -- 999.3 0.6 82
2019-08-05 02:00:00 21.2 0 Calma 11 Oeste 0 999.3 0.6 75
2019-08-05 01:00:00 21.8 8 Sudoeste 9 Sudoeste 0 999.1 0.9 77
2019-08-05 00:00:00 23.1 0 Calma 11 Sudoeste 0 998.7 1 73
2019-08-04 23:00:00 24.4 6 Sudoeste 13 Sur 0 998.7 1.2 62
2019-08-04 22:00:00 26.3 6 Sur 17 Sur 0 998.2 0.7 51
2019-08-04 21:00:00 28 12 Sur 22 Sur 0 997.7 0.5 42
2019-08-04 20:00:00 29.7 18 Sur 32 Sur 0 997.5 -0.1 36
2019-08-04 19:00:00 29.3 20 Sur 42 Sur 0 997.5 -0.4 32
2019-08-04 18:00:00 31.7 35 Sur 45 Sur 0 997.2 -0.8 39
2019-08-04 17:00:00 32 28 Sur 42 Sur 0 997.6 -0.5 40
2019-08-04 16:00:00 32.9 28 Sur 41 Sur 0 997.9 -0.3 36
2019-08-04 15:00:00 33.2 23 Sur 37 Sur 0 998 -0.7 36
2019-08-04 14:00:00 34 22 Sur 32 Sur 0 998.1 -0.7 32
2019-08-04 13:00:00 33.8 11 Sudoeste 22 Sur 0 998.2 -0.7 33
2019-08-04 12:00:00 32.5 10 Sur 17 Este 0 998.7 -0.1 32
2019-08-04 11:00:00 30.4 10 Nordeste 17 Norte 0 998.8 0.2 41
2019-08-04 10:00:00 28.4 0 Calma 8 Sur 0 998.9 0.7 50
2019-08-04 09:00:00 24.5 3 Sudoeste 8 Sudoeste 0 998.8 0.7 65
2019-08-04 08:00:00 21.3 0 Calma -- -- 0 998.6 0.6 82
2019-08-04 07:00:00 19.1 0 Calma 8 Nordeste 0 998.2 0.3 88
2019-08-04 06:00:00 19.3 3 Nordeste 5 Nordeste 0 998.1 0.2 88
2019-08-04 05:00:00 19.6 0 Calma 2 Nordeste 0 998 0 87
2019-08-04 04:00:00 19.9 3 Nordeste -- -- 0 997.9 0 88
2019-08-04 03:00:00 20.4 5 Nordeste 5 Nordeste 0 997.9 0 88
2019-08-04 02:00:00 21.5 2 Nordeste 8 Nordeste 0 998 0.4 86
2019-08-04 01:00:00 22.7 0 Calma 5 Sudoeste 0 997.9 0.4 82
2019-08-04 00:00:00 23.6 6 Sudoeste 9 Sur 0 997.9 0.9 80
2019-08-03 23:00:00 24.9 6 Sudoeste 13 Sur 0 997.6 1 76
2019-08-03 22:00:00 25.6 8 Sur 15 Sur 0 997.5 0.7 71
2019-08-03 21:00:00 26.8 9 Sur 26 Sudeste 0 997 0 63
2019-08-03 20:00:00 28.8 17 Sudeste 30 Sudeste 0 996.6 -0.8 55
2019-08-03 19:00:00 30.1 19 Sudeste 35 Sur 0 996.8 -1.1 50
2019-08-03 18:00:00 31.1 27 Sur 37 Sur 0 997 -1.4 43
2019-08-03 17:00:00 31.9 29 Sur 45 Sur 0 997.4 -1.3 41
2019-08-03 16:00:00 32.6 32 Sur 42 Sur 0 997.9 -1.1 32
2019-08-03 15:00:00 32.5 28 Sur 39 Sur 0 998.4 -1.2 34
2019-08-03 14:00:00 33.6 22 Sur 32 Sur 0 998.7 -1 30
2019-08-03 13:00:00 32.8 10 Sur 22 Sur 0 999 -0.8 31
2019-08-03 12:00:00 31.7 6 Sur 21 Sudeste 0 999.6 -0.1 34
2019-08-03 11:00:00 30.2 7 Este 18 Este 0 999.7 0.1 38
2019-08-03 10:00:00 28.1 7 Nordeste 11 Nordeste 0 999.8 0.3 48
2019-08-03 09:00:00 24.1 0 Calma 9 Nordeste 0 999.7 0.6 62
2019-08-03 08:00:00 20 7 Nordeste 11 Nordeste 0 999.6 0.5 79
2019-08-03 07:00:00 17.5 0 Calma 9 Nordeste 0 999.5 0 87
2019-08-03 06:00:00 18 4 Sudoeste 8 Oeste 0 999.1 -0.4 83
2019-08-03 05:00:00 19.3 5 Norte 9 Oeste 0 999.1 -0.7 79
2019-08-03 04:00:00 19.3 0 Calma 8 Nordeste 0 999.5 -0.4 80
2019-08-03 03:00:00 19.8 6 Nordeste 9 Nordeste 0 999.5 -0.4 78
2019-08-03 02:00:00 20.4 0 Calma -- -- 0 999.8 0.1 77
2019-08-03 01:00:00 21.1 0 Calma 2 Noroeste 0 999.9 0.6 76
2019-08-03 00:00:00 22.3 0 Calma 9 Este 0 999.9 1.1 71
2019-08-02 23:00:00 23.7 0 Calma 5 Oeste 0 999.7 1 66
2019-08-02 22:00:00 25 4 Sudoeste 17 Sudoeste 0 999.3 0.9 60
2019-08-02 21:00:00 26.6 13 Sur 22 Sur 0 998.8 0.3 55
2019-08-02 20:00:00 28.4 15 Sur 26 Sur 0 998.7 0.2 49
2019-08-02 19:00:00 29.6 20 Sur 32 Sur 0 998.4 0 46
2019-08-02 18:00:00 30.2 27 Sur 39 Sur 0 998.5 0.7 40
2019-08-02 17:00:00 31.1 30 Sur 41 Sur 0 998.5 0.6 39
2019-08-02 16:00:00 32.3 30 Sur 37 Sur 0 998.4 0.1 34
2019-08-02 15:00:00 34 14 Sur 28 Sur 0 997.8 -0.7 31
2019-08-02 14:00:00 33.4 8 Este 24 Este 0 997.9 -0.8 29
2019-08-02 13:00:00 32 9 Sudeste 26 Nordeste 0 998.3 -0.4 30
2019-08-02 12:00:00 30.6 21 Nordeste 33 Nordeste 0 998.5 -0.1 34
2019-08-02 11:00:00 28.9 18 Nordeste 28 Nordeste 0 998.7 0.2 38
2019-08-02 10:00:00 26.6 15 Nordeste 18 Nordeste 0 998.7 0.5 47
2019-08-02 09:00:00 23.4 2 Este 8 Este 0 998.6 0.8 56
2019-08-02 08:00:00 19.2 0 Calma 5 Nordeste 0 998.5 0.3 72
2019-08-02 07:00:00 17.2 0 Calma 9 Nordeste 0 998.2 0.4 77
2019-08-02 06:00:00 17.8 4 Nordeste 13 Noroeste 0 997.8 -0.4 75
2019-08-02 05:00:00 18.5 5 Noroeste 9 Norte 0 998.2 0 70
2019-08-02 04:00:00 18.7 6 Este 11 Noroeste 0 997.8 -1 70
2019-08-02 03:00:00 19.1 6 Oeste 11 Norte 0 998.2 -0.2 66
2019-08-02 02:00:00 20 7 Norte 9 Noroeste 0 998.2 0.2 65
2019-08-02 01:00:00 20.8 0 Calma 13 Norte 0 998.8 1.7 64
2019-08-02 00:00:00 22.1 8 Norte 13 Norte 0 998.4 1.8 60
2019-08-01 23:00:00 22.8 8 Norte 18 Norte 0 998 1.4 53
2019-08-01 22:00:00 23.6 17 Nordeste 22 Nordeste 0 997.1 0.5 44
2019-08-01 21:00:00 26.3 9 Este 21 Sudeste 0 996.6 0.1 36
2019-08-01 20:00:00 28.1 13 Este 21 Este 0 996.6 -0.4 30
2019-08-01 19:00:00 30.2 14 Este 22 Este 0 996.6 -0.4 26
2019-08-01 18:00:00 31.4 13 Este 24 Este 0 996.5 -1.3 25
2019-08-01 17:00:00 31.6 15 Este 32 Nordeste 0 997 -1.5 26
2019-08-01 16:00:00 31.8 13 Este 30 Este 0 997 -1.9 26
2019-08-01 15:00:00 31.9 13 Este 26 Este 0 997.8 -1.7 24
2019-08-01 14:00:00 31.2 9 Este 22 Sudeste 0 998.5 -0.9 26
2019-08-01 13:00:00 29.9 8 Este 21 Este 0 998.9 -0.1 29
2019-08-01 12:00:00 27.6 12 Nordeste 21 Nordeste 0 999.5 0.9 34
2019-08-01 11:00:00 25.9 14 Nordeste 26 Nordeste 0 999.4 0.9 40
2019-08-01 10:00:00 24.9 13 Nordeste 22 Norte 0 999 0.1 45
2019-08-01 09:00:00 22.7 14 Nordeste 22 Norte 0 998.6 -0.6 59
2019-08-01 08:00:00 20.1 12 Norte 15 Norte 0 998.5 -1.5 78
2019-08-01 07:00:00 18.3 4 Nordeste 17 Norte 0 998.9 -1.8 85
2019-08-01 06:00:00 18.7 8 Norte 15 Norte 0 999.2 -0.9 85
2019-08-01 05:00:00 18.7 9 Norte 15 Norte 0 1000 -0.7 88
2019-08-01 04:00:00 18.4 4 Noroeste 9 Oeste 0 1000.7 -0.3 88
2019-08-01 03:00:00 18.8 0 Calma 11 Nordeste 0 1000.1 -0.6 86
2019-08-01 02:00:00 19.5 5 Nordeste 11 Oeste 0.1 1000.7 -0.1 86
2019-08-01 01:00:00 19.7 5 Nordeste 9 Nordeste 0 1001 0.1 82
2019-08-01 00:00:00 20.9 0 Calma 8 Noroeste 0 1000.7 0.3 75
2019-07-31 23:00:00 21.2 7 Oeste 8 Oeste 0 1000.8 0.6 73
2019-07-31 22:00:00 22.3 7 Sudoeste 15 Sur 0 1000.9 0.6 67
2019-07-31 21:00:00 23.7 12 Sudoeste 17 Sudoeste 0 1000.4 0.1 62
2019-07-31 20:00:00 26 13 Sur 21 Sur 0 1000.2 -0.1 55
2019-07-31 19:00:00 26.9 15 Sur 30 Sudoeste 0 1000.3 -0.7 52
2019-07-31 18:00:00 28.3 18 Sudoeste 28 Sur 0 1000.3 -0.9 49
2019-07-31 17:00:00 28.8 15 Sudoeste 28 Sur 0 1000.3 -1 46
2019-07-31 16:00:00 28.6 19 Sur 32 Sur 0 1001 -0.6 46
2019-07-31 15:00:00 29.1 26 Sur 41 Sur 0 1001.2 -1 44
2019-07-31 14:00:00 28.4 6 Este 21 Nordeste 0 1001.3 -1.5 40
2019-07-31 13:00:00 27.1 12 Norte 28 Nordeste 0 1001.6 -1.4 44
2019-07-31 12:00:00 26.1 10 Este 22 Este 0 1002.2 -0.8 45
2019-07-31 11:00:00 24.3 12 Nordeste 22 Nordeste 0 1002.8 0 50
2019-07-31 10:00:00 22.7 14 Nordeste 26 Este 0 1003 0.5 55
2019-07-31 09:00:00 21.2 13 Nordeste 17 Nordeste 0 1003 1.1 59
2019-07-31 08:00:00 19.4 6 Norte 15 Nordeste 0 1002.8 1.3 66
2019-07-31 07:00:00 17.8 11 Norte 15 Norte 0 1002.5 1.1 70
2019-07-31 06:00:00 17 0 Calma 8 Norte 0 1001.9 0.3 78
2019-07-31 05:00:00 17.3 3 Norte 8 Norte 0 1001.5 -0.3 79
2019-07-31 04:00:00 17.3 -- -- -- -- 0 1001.4 -0.5 79
2019-07-31 03:00:00 18.7 0 Calma 4 Norte 0 1001.6 -0.1 74
2019-07-31 02:00:00 19.4 2 Norte 5 Norte 0 1001.8 0.3 66
2019-07-31 01:00:00 20.6 0 Calma 8 Noroeste 0 1001.9 0.8 64
2019-07-31 00:00:00 21.7 6 Nordeste 17 Este 0 1001.7 1.6 57
2019-07-30 23:00:00 22.8 10 Nordeste 17 Este 0 1001.5 2 52
2019-07-30 22:00:00 23.6 8 Este 17 Este 0 1001.1 2 51
2019-07-30 21:00:00 24.2 10 Nordeste 18 Nordeste 0 1000.1 1.3 52
2019-07-30 20:00:00 25.2 5 Este 17 Sur 0 999.5 1.2 58
2019-07-30 19:00:00 25.8 11 Sudeste 21 Sudeste 0 999.1 0.8 64
2019-07-30 18:00:00 26.9 14 Sur 30 Sudeste 0 998.8 0.1 62
2019-07-30 17:00:00 29.7 23 Sur 42 Sur 0 998.3 -0.7 56
2019-07-30 16:00:00 29.1 30 Sur 42 Sur 0 998.3 -0.8 59
2019-07-30 15:00:00 29.8 26 Sur 41 Sur 0 998.7 -0.5 57
2019-07-30 14:00:00 29.4 24 Sur 41 Sur 0 999 -0.2 59
2019-07-30 13:00:00 28.8 21 Sur 32 Sur 0 999.1 -0.1 62
2019-07-30 12:00:00 29 17 Sur 24 Sur 0 999.2 0.2 54
2019-07-30 11:00:00 28.4 7 Sur 17 Sur 0 999.2 1 51
2019-07-30 10:00:00 26.3 6 Sur 13 Sudoeste 0 999.2 1.7 61
2019-07-30 09:00:00 23.9 5 Nordeste 17 Nordeste 0 999 1.8 68
2019-07-30 08:00:00 21.7 0 Calma 8 Norte 0 998.2 1.1 89
2019-07-30 07:00:00 19.8 0 Calma 8 Norte 0 997.5 0.5 97
2019-07-30 06:00:00 20.1 7 Nordeste 9 Nordeste 0 997.2 0.2 98
2019-07-30 05:00:00 19.9 4 Norte 8 Norte 0 997.1 0.2 96
2019-07-30 04:00:00 20.8 0 Calma 8 Noroeste 0 997 0.2 97
2019-07-30 03:00:00 21.1 0 Calma 8 Nordeste 0 997 0.5 95
2019-07-30 02:00:00 22.4 3 Noroeste 8 Noroeste 0 996.9 0.8 94
2019-07-30 01:00:00 22.4 0 Calma 2 Sudoeste 0 996.8 1.5 93
2019-07-30 00:00:00 23.1 0 Calma 5 Este 0 996.5 1.7 91
2019-07-29 23:00:00 24 0 Calma 8 Sur 0 996.1 2.1 87
2019-07-29 22:00:00 25 5 Sur 15 Sur 0 995.3 1.7 83
2019-07-29 21:00:00 25.9 11 Sudeste 21 Sur 0 994.8 1.3 79
2019-07-29 20:00:00 27.7 15 Sudeste 26 Sur 0 994 0.5 71
2019-07-29 19:00:00 28.6 19 Sur 35 Sur 0 993.6 -0.5 67
2019-07-29 18:00:00 29.7 27 Sur 37 Sur 0 993.5 -0.9 60
2019-07-29 17:00:00 30 25 Sur 35 Sur 0 993.5 -1.2 54
2019-07-29 16:00:00 29.8 23 Sur 35 Sur 0 994.1 -0.7 56
2019-07-29 15:00:00 29.4 19 Sur 32 Sur 0 994.4 -0.8 56
2019-07-29 14:00:00 28.8 19 Sur 33 Sur 0 994.7 -0.9 54
2019-07-29 13:00:00 28.5 16 Sur 26 Sur 0 994.8 -0.8 51
2019-07-29 12:00:00 27.2 11 Sur 21 Sur 0 995.2 -0.5 51
2019-07-29 11:00:00 25.6 8 Sur 17 Sur 0 995.6 0.1 53
2019-07-29 10:00:00 24 4 Sudeste 11 Este 0 995.6 0.5 59
2019-07-29 09:00:00 21.3 5 Este 11 Este 0 995.7 0.8 76
2019-07-29 08:00:00 17.8 0 Calma 4 Nordeste 0 995.5 0.5 88
2019-07-29 07:00:00 15.3 0 Calma -- -- 0 995.1 -0.1 96
2019-07-29 06:00:00 15.3 0 Calma 8 Este 0 994.9 -0.7 96
2019-07-29 05:00:00 15.9 0 Calma 5 Noroeste 0 995 -0.8 96
2019-07-29 04:00:00 16 0 Calma 8 Oeste 0 995.2 -0.7 92
2019-07-29 03:00:00 17 0 Calma 5 Sur 0 995.6 -0.4 90
2019-07-29 02:00:00 18.1 0 Calma 13 Noroeste 0 995.8 -0.2 85
2019-07-29 01:00:00 19.2 8 Norte 13 Noroeste 0 995.9 0.3 80
2019-07-29 00:00:00 19.4 10 Noroeste 13 Noroeste 0 996 1.1 80
2019-07-28 23:00:00 20.9 7 Norte 9 Norte 0 996 1.7 74
2019-07-28 22:00:00 21.4 5 Sudoeste 15 Sur 0 995.6 1.9 70
2019-07-28 21:00:00 23.1 9 Sur 22 Sur 0 994.9 1.4 65
2019-07-28 20:00:00 24.5 19 Sur 32 Sur 0 994.3 1.1 60
2019-07-28 19:00:00 25.4 17 Sur 30 Sur 0 993.7 0.4 60
2019-07-28 18:00:00 26.2 23 Sur 39 Sudoeste 0 993.5 0.3 55
2019-07-28 17:00:00 26.4 23 Sur 35 Sur 0 993.2 -0.2 56
2019-07-28 16:00:00 27.3 22 Sur 33 Sur 0 993.3 -0.3 50
2019-07-28 15:00:00 27.8 15 Sur 30 Sur 0 993.2 -0.6 49
2019-07-28 14:00:00 27.3 13 Sur 22 Sur 0 993.4 -0.2 50
2019-07-28 13:00:00 26 4 Nordeste 15 Sudoeste 0 993.6 0.1 49
2019-07-28 12:00:00 24.7 8 Norte 15 Norte 0 993.8 1 57
2019-07-28 11:00:00 23.4 6 Norte 11 Nordeste 0 993.6 1.4 64
2019-07-28 10:00:00 21.2 3 Este 11 Este 0 993.5 1.6 77
2019-07-28 09:00:00 18.1 8 Nordeste 13 Nordeste 0 992.8 1.6 90
2019-07-28 08:00:00 16.3 2 Sudoeste 13 Sudoeste 0 992.2 1.2 95
2019-07-28 07:00:00 14.3 7 Sudoeste 9 Oeste 0 991.9 1 99
2019-07-28 06:00:00 14.5 9 Nordeste 11 Nordeste 0 991.2 0.4 99
2019-07-28 05:00:00 15 2 Noroeste 11 Noroeste 0 991 0.7 98
2019-07-28 04:00:00 15.1 7 Noroeste 11 Oeste 0 990.9 0.8 99
2019-07-28 03:00:00 15.7 10 Norte 15 Nordeste 0 990.8 0.8 99
2019-07-28 02:00:00 15.5 0 Calma 11 Nordeste 0 990.3 0.3 99
2019-07-28 01:00:00 15.8 0 Calma 13 Oeste 0 990.1 0.7 97
2019-07-28 00:00:00 16.2 9 Oeste 13 Oeste 0 990 1.4 97
2019-07-27 23:00:00 16.6 3 Sudoeste 13 Sudoeste 0 990 1.7 96
2019-07-26 12:00:00 32.3 6 Sudoeste 22 Sur 0 995.5 -1.2 34
2019-07-26 11:00:00 30.4 5 Este 15 Sudeste 0 996 -0.8 44
2019-07-26 10:00:00 28.8 6 Este 13 Este 0 996.4 -0.2 57
2019-07-26 09:00:00 25.1 0 Calma 4 Sur 0 996.7 0.2 77
2019-07-26 08:00:00 21.4 4 Sudoeste 9 Norte 0 996.8 0.4 87
2019-07-26 07:00:00 20.1 8 Norte 13 Nordeste 0 996.6 0.2 94
2019-07-26 06:00:00 20 7 Norte 11 Norte 0 996.5 -0.4 91
2019-07-26 05:00:00 20.9 7 Norte 13 Sudoeste 0 996.4 -0.7 88
2019-07-26 04:00:00 22.6 7 Sudoeste 22 Sur 0 996.4 -1 80
2019-07-26 03:00:00 22.6 13 Sur 18 Sur 0 996.9 -0.6 86
2019-07-26 02:00:00 23.6 13 Sur 21 Sur 0 997.1 -0.7 95
2019-07-26 01:00:00 23.8 13 Sur 18 Sudoeste 0 997.4 -0.1 92
2019-07-26 00:00:00 24.4 11 Sur 18 Sur 0 997.5 0.2 91